Latest Weather Observations for Camooweal

IDQ60801

Issued at 10:12 pm EST Friday 15 November 2019 (issued every 10 minutes, with the page automatically refreshed every 10 minutes)

About weather observations | Map of weather stations | Latest weather observations for QLD | Other Formats
Station Details ID: 037010 Name: CAMOOWEAL TOWNSHIP Lat: -19.92 Lon: 138.12 Height: 231.2 m
Data from the previous 72 hours. | See also: Recent months at Camooweal
Date/Time
EST
Temp
°C
App
Temp
°C
Dew
Point
°C
Rel
Hum
%
Delta-T
°C
Wind Press
QNH
hPa
Press
MSL
hPa
Rain since
9am
mm
Dir  Spd
km/h
Gust
km/h
Spd
kts
Gust
kts
15/10:00pm 28.0 22.3 -7.8 9 14.8 S 15 19 8 10 1013.3 1011.7 0.0
15/09:30pm 27.9 21.8 -7.9 9 14.8 S 17 20 9 11 1013.0 1011.3 0.0
15/09:00pm 27.6 22.2 -8.1 9 14.7 S 13 15 7 8 1012.7 1011.0 0.0
15/08:30pm 28.2 22.7 -9.1 8 15.1 S 13 15 7 8 1012.4 1010.7 0.0
15/08:00pm 30.0 24.3 -7.8 8 15.9 S 15 17 8 9 1012.0 1010.3 0.0
15/07:30pm 31.2 25.4 -8.6 7 16.7 S 15 15 8 8 1011.5 1009.8 0.0
15/07:00pm 33.5 27.1 -7.0 7 17.8 S 19 26 10 14 1011.1 1009.4 0.0
15/06:30pm 34.6 28.1 -8.2 6 18.6 S 19 26 10 14 1010.8 1009.1 0.0
15/06:00pm 35.7 29.2 -7.4 6 19.2 S 19 28 10 15 1010.5 1008.9 0.0
15/05:30pm 36.0 29.4 -7.2 6 19.3 SSW 20 26 11 14 1010.0 1008.4 0.0
15/05:00pm 36.1 30.2 -9.4 5 19.7 SSW 15 28 8 15 1009.9 1008.3 0.0
15/04:30pm 36.2 30.2 -7.0 6 19.4 S 17 26 9 14 1010.1 1008.5 0.0
15/04:00pm 36.7 32.0 -9.0 5 20.0 SSE 9 20 5 11 1010.2 1008.6 0.0
15/03:30pm 35.6 28.8 -9.8 5 19.4 SW 20 28 11 15 1010.3 1008.7 0.0
15/03:00pm 36.5 30.1 -6.8 6 19.6 SSE 19 30 10 16 1010.7 1009.0 0.0
15/02:30pm 35.7 30.0 -7.4 6 19.2 SSW 15 28 8 15 1011.0 1009.3 0.0
15/02:00pm 36.0 29.4 -7.2 6 19.3 S 20 30 11 16 1011.5 1009.8 0.0
15/01:30pm 35.5 29.4 -7.5 6 19.1 SE 17 26 9 14 1011.9 1010.2 0.0
15/01:00pm 36.3 30.1 -5.0 7 19.2 SSE 19 28 10 15 1012.4 1010.7 0.0
15/12:30pm 35.5 28.8 -7.5 6 19.1 S 20 33 11 18 1012.8 1011.1 0.0
15/12:00pm 34.5 28.0 -6.3 7 18.3 SSE 20 32 11 17 1013.2 1011.6 0.0
15/11:30am 33.2 25.8 -7.2 7 17.7 SSE 24 35 13 19 1013.8 1012.2 0.0
15/11:00am 32.7 26.4 -5.8 8 17.2 SE 19 32 10 17 1014.2 1012.6 0.0
15/10:30am 31.9 25.0 -6.4 8 16.8 SE 22 35 12 19 1014.5 1012.9 0.0
15/10:00am 31.1 23.9 -5.5 9 16.2 SSE 24 32 13 17 1014.8 1013.2 0.0
15/09:30am 30.0 21.9 -6.3 9 15.7 SE 28 37 15 20 1015.2 1013.5 0.0
15/09:00am 29.3 22.1 -5.4 10 15.2 SE 24 32 13 17 1015.0 1013.4 0.0
15/08:30am 27.1 20.1 -7.1 10 14.2 SE 22 32 12 17 1014.9 1013.3 0.0
15/08:00am 25.3 18.7 -7.2 11 13.3 SSE 20 28 11 15 1014.5 1012.9 0.0
15/07:30am 23.1 17.4 -7.8 12 12.2 SSE 15 20 8 11 1014.3 1012.7 0.0
15/07:00am 18.3 14.1 -9.6 14 10.1 SSW 6 11 3 6 1014.0 1012.4 0.0
15/06:30am 17.1 12.9 -10.6 14 9.7 SW 6 7 3 4 1013.7 1012.1 0.0
15/06:00am 17.1 12.6 -11.5 13 9.8 S 7 9 4 5 1013.3 1011.7 0.0
15/05:30am 18.8 13.3 -10.2 13 10.4 SSE 13 17 7 9 1013.0 1011.3 0.0
15/05:00am 19.3 13.7 -10.8 12 10.7 S 13 17 7 9 1012.9 1011.2 0.0
15/04:30am 20.4 14.5 -9.9 12 11.2 SSE 15 20 8 11 1012.7 1011.0 0.0
15/04:00am 20.8 14.8 -10.7 11 11.5 S 15 20 8 11 1012.6 1010.9 0.0
15/03:30am 21.3 15.0 -10.3 11 11.7 S 17 24 9 13 1012.5 1010.8 0.0
15/03:00am 21.7 14.8 -11.2 10 12.0 S 20 26 11 14 1012.5 1010.8 0.0
15/02:30am 21.1 14.7 -11.7 10 11.7 SSW 17 22 9 12 1012.7 1011.0 0.0
15/02:00am 21.5 15.5 -11.4 10 11.9 S 15 20 8 11 1012.8 1011.1 0.0
15/01:30am 19.5 13.8 -12.9 10 11.1 SSW 13 15 7 8 1013.0 1011.3 0.0
15/01:00am 20.2 14.8 -13.6 9 11.5 SSW 11 15 6 8 1013.3 1011.7 0.0
15/12:30am 24.0 17.2 -12.2 8 13.3 S 19 24 10 13 1013.5 1011.9 0.0
15/12:00am 25.4 18.6 -11.2 8 13.9 S 19 28 10 15 1013.5 1011.9 0.0
 
Date/Time
EST
Temp
°C
App
Temp
°C
Dew
Point
°C
Rel
Hum
%
Delta-T
°C
Wind Press
QNH
hPa
Press
MSL
hPa
Rain since
9am
mm
Dir  Spd
km/h
Gust
km/h
Spd
kts
Gust
kts
14/11:30pm 25.2 18.7 -13.0 7 14.0 S 17 22 9 12 1013.7 1012.1 0.0
14/11:00pm 25.5 18.6 -12.8 7 14.1 S 19 24 10 13 1013.7 1012.1 0.0
14/10:30pm 26.2 19.8 -12.3 7 14.4 S 17 24 9 13 1013.6 1012.0 0.0
14/10:00pm 27.1 20.1 -11.6 7 14.8 S 20 26 11 14 1013.3 1011.7 0.0
14/09:30pm 27.7 20.8 -13.1 6 15.3 S 19 24 10 13 1013.0 1011.3 0.0
14/09:00pm 28.4 21.6 -12.6 6 15.7 S 19 22 10 12 1012.7 1011.0 0.0
14/08:30pm 29.0 22.6 -12.2 6 15.9 S 17 20 9 11 1012.4 1010.7 0.0
14/08:00pm 30.0 23.2 -11.4 6 16.4 S 19 22 10 12 1012.1 1010.4 0.0
14/07:30pm 31.1 24.6 -12.9 5 17.2 S 17 20 9 11 1011.6 1009.9 0.0
14/07:00pm 32.6 25.2 -11.9 5 17.9 S 22 33 12 18 1011.3 1009.6 0.0
14/06:30pm 33.8 25.7 -11.0 5 18.5 SSE 26 39 14 21 1010.9 1009.2 0.0
14/06:00pm 34.7 26.5 -13.2 4 19.3 S 26 35 14 19 1010.8 1009.1 0.0
14/05:30pm 35.7 27.5 -12.5 4 19.8 S 26 35 14 19 1010.7 1009.0 0.0
14/05:00pm 36.0 28.0 -9.5 5 19.6 S 26 33 14 18 1010.7 1009.0 0.0
14/04:30pm 35.8 27.3 -12.4 4 19.8 SSE 28 52 15 28 1010.9 1009.2 0.0
14/04:00pm 36.9 29.0 -8.9 5 20.1 S 26 44 14 24 1011.3 1009.6 0.0
14/03:30pm 36.4 28.8 -9.2 5 19.8 S 24 35 13 19 1011.8 1010.1 0.0
14/03:00pm 36.0 28.8 -9.5 5 19.6 SSE 22 32 12 17 1012.1 1010.4 0.0
14/02:30pm 35.1 27.5 -10.1 5 19.2 S 24 37 13 20 1012.6 1010.9 0.0
14/02:00pm 35.2 28.0 -10.1 5 19.2 SSE 22 35 12 19 1013.1 1011.5 0.0
14/01:30pm 35.0 28.1 -10.2 5 19.1 S 20 39 11 21 1013.5 1011.9 0.0
14/01:00pm 34.6 28.1 -8.2 6 18.6 SE 19 39 10 21 1014.1 1012.5 0.0
14/12:30pm 33.8 27.0 -8.7 6 18.2 SSE 20 37 11 20 1014.6 1013.0 0.0
14/12:00pm 32.9 25.3 -9.4 6 17.8 SE 24 35 13 19 1015.3 1013.6 0.0
14/11:30am 32.3 24.9 -7.8 7 17.2 SE 24 35 13 19 1015.9 1014.2 0.0
14/11:00am 32.0 24.2 -8.1 7 17.1 SE 26 35 14 19 1016.3 1014.6 0.0
14/10:30am 31.0 22.9 -7.1 8 16.4 SE 28 43 15 23 1016.7 1015.0 0.0
14/10:00am 30.1 21.5 -7.7 8 16.0 SE 30 39 16 21 1017.0 1015.4 0.0
14/09:30am 29.6 20.8 -6.6 9 15.5 SE 32 41 17 22 1016.9 1015.2 0.0
14/09:00am 27.9 19.8 -6.5 10 14.5 SE 28 39 15 21 1016.8 1015.1 0.0
14/08:30am 26.5 17.7 -6.3 11 13.8 SE 32 44 17 24 1016.4 1014.7 0.0
14/08:00am 25.9 17.9 -5.6 12 13.3 SSE 28 41 15 22 1016.3 1014.6 0.0
14/07:30am 23.6 17.1 -6.4 13 12.2 SSE 20 26 11 14 1016.1 1014.4 0.0
14/07:00am 22.1 15.2 -6.6 14 11.5 S 22 30 12 16 1015.9 1014.2 0.0
14/06:30am 21.3 14.7 -7.2 14 11.2 S 20 26 11 14 1015.4 1013.7 0.0
14/06:00am 21.2 14.8 -7.3 14 11.1 S 19 24 10 13 1015.0 1013.4 0.0
14/05:30am 21.6 14.9 -8.0 13 11.5 S 20 26 11 14 1014.6 1013.0 0.0
14/05:00am 22.1 15.4 -7.6 13 11.6 S 20 30 11 16 1014.3 1012.7 0.0
14/04:30am 22.4 15.7 -8.4 12 11.9 S 20 30 11 16 1014.2 1012.6 0.0
14/04:00am 22.8 16.1 -8.1 12 12.1 S 20 28 11 15 1013.9 1012.3 0.0
14/03:30am 23.3 16.8 -7.7 12 12.3 S 19 26 10 14 1014.0 1012.4 0.0
14/03:00am 24.0 17.3 -8.2 11 12.7 S 20 26 11 14 1014.0 1012.4 0.0
14/02:30am 24.7 17.7 -7.7 11 13.0 S 22 30 12 16 1014.0 1012.4 0.0
14/02:00am 25.6 17.9 -7.0 11 13.4 S 26 35 14 19 1014.0 1012.4 0.0
14/01:30am 26.0 18.8 -5.6 12 13.4 S 24 35 13 19 1014.3 1012.7 0.0
14/01:00am 26.7 18.8 -5.0 12 13.6 S 28 41 15 22 1014.6 1013.0 0.0
14/12:30am 27.5 19.3 -4.4 12 14.0 S 30 44 16 24 1014.6 1013.0 0.0
14/12:00am 28.0 19.9 -3.0 13 14.0 S 30 41 16 22 1014.7 1013.1 0.0
 
Date/Time
EST
Temp
°C
App
Temp
°C
Dew
Point
°C
Rel
Hum
%
Delta-T
°C
Wind Press
QNH
hPa
Press
MSL
hPa
Rain since
9am
mm
Dir  Spd
km/h
Gust
km/h
Spd
kts
Gust
kts
13/11:30pm 28.7 20.1 -2.4 13 14.3 S 33 44 18 24 1014.8 1013.2 0.0
13/11:00pm 29.1 20.7 -2.1 13 14.4 S 32 44 17 24 1014.8 1013.2 0.0
13/10:30pm 29.8 21.8 -2.6 12 14.9 S 30 41 16 22 1014.5 1012.9 0.0
13/10:00pm 30.4 22.4 -2.2 12 15.2 S 30 41 16 22 1014.3 1012.7 0.0
13/09:30pm 31.0 23.5 -1.7 12 15.4 S 28 35 15 19 1014.0 1012.4 0.0
13/09:00pm 31.6 24.0 -2.4 11 15.9 S 28 35 15 19 1013.6 1012.0 0.0
13/08:30pm 32.2 25.0 -2.0 11 16.2 S 26 35 14 19 1013.0 1011.3 0.0
13/08:00pm 33.0 25.7 -2.6 10 16.8 S 26 35 14 19 1012.7 1011.0 0.0
13/07:30pm 33.8 27.0 -2.0 10 17.1 S 24 33 13 18 1012.3 1010.6 0.0
13/07:00pm 34.8 27.5 -2.7 9 17.9 S 26 37 14 20 1011.9 1010.2 0.0
13/06:30pm 35.8 27.3 -3.5 8 18.6 SSW 32 41 17 22 1011.4 1009.7 0.0
13/06:00pm 36.9 29.2 -2.7 8 19.2 S 28 35 15 19 1011.3 1009.6 0.0
13/05:30pm 37.7 31.0 -3.9 7 19.9 SSW 22 32 12 17 1011.1 1009.4 0.0
13/05:00pm 37.8 31.7 -3.9 7 19.9 SSE 19 30 10 16 1011.0 1009.3 0.0
13/04:30pm 37.8 31.1 -3.9 7 19.9 S 22 33 12 18 1011.2 1009.5 0.0
13/04:00pm 38.8 31.8 -3.2 7 20.4 SSE 24 37 13 20 1011.3 1009.6 0.0
13/03:30pm 37.7 31.8 -2.2 8 19.6 S 19 30 10 16 1011.6 1009.9 0.0
13/03:00pm 37.9 31.2 -3.8 7 20.0 S 22 35 12 19 1011.9 1010.2 0.0
13/02:30pm 38.5 32.5 -3.4 7 20.3 S 19 30 10 16 1012.2 1010.5 0.0
13/02:00pm 37.8 31.7 -2.1 8 19.6 S 20 28 11 15 1012.8 1011.1 0.0
13/01:30pm 37.3 30.4 -2.4 8 19.3 S 24 32 13 17 1013.3 1011.7 0.0
13/01:00pm 36.1 29.3 -1.7 9 18.5 S 24 33 13 18 1013.7 1012.1 0.0
13/12:30pm 35.1 28.8 -1.1 10 17.8 SSE 22 33 12 18 1014.3 1012.7 0.0
13/12:00pm 34.7 27.4 -0.1 11 17.3 SSE 28 41 15 22 1014.8 1013.2 0.0
13/11:30am 33.2 26.1 -1.2 11 16.6 SSE 26 35 14 19 1015.5 1013.8 0.0
13/11:00am 32.8 25.5 -0.3 12 16.2 SSE 28 41 15 22 1016.0 1014.3 0.0
13/10:30am 31.9 24.2 0.1 13 15.6 S 30 41 16 22 1016.4 1014.7 0.0
13/10:00am 30.3 22.6 -0.1 14 14.7 SSE 30 41 16 22 1016.6 1014.9 0.0
13/09:30am 29.3 21.9 -0.9 14 14.3 S 28 41 15 22 1016.7 1015.0 0.0
13/09:00am 28.7 21.1 0.4 16 13.6 S 30 39 16 21 1016.8 1015.1 0.0
13/08:30am 27.5 19.5 0.3 17 13.0 S 32 41 17 22 1016.8 1015.1 0.0
13/08:00am 26.5 19.2 0.3 18 12.4 S 28 37 15 20 1016.6 1014.9 0.0
13/07:30am 25.5 18.9 -0.5 18 12.0 SSW 24 32 13 17 1016.6 1014.9 0.0
13/07:00am 24.7 18.0 -1.2 18 11.7 S 24 32 13 17 1016.3 1014.6 0.0
13/06:30am 24.3 17.8 -2.3 17 11.8 S 22 30 12 16 1015.7 1014.0 0.0
13/06:00am 23.9 16.4 -4.3 15 12.0 S 26 32 14 17 1015.2 1013.5 0.0
13/05:30am 25.1 17.9 -5.2 13 12.8 SSW 24 30 13 16 1014.7 1013.1 0.0
13/05:00am 26.4 20.0 -5.3 12 13.5 S 20 37 11 20 1013.8 1012.2 0.0
13/04:30am 24.0 17.6 -7.1 12 12.6 SSW 19 20 10 11 1013.5 1011.9 0.0
13/04:00am 26.6 20.2 -5.1 12 13.6 SSE 20 28 11 15 1013.2 1011.6 0.0
13/03:30am 23.1 18.4 -4.9 15 11.7 S 11 17 6 9 1013.0 1011.3 0.0
13/03:00am 20.5 16.8 -4.6 18 10.3 ENE 6 11 3 6 1012.6 1010.9 0.0
13/02:30am 22.2 19.4 -3.2 18 10.9 N 2 7 1 4 1012.3 1010.6 0.0
13/02:00am 24.5 20.1 -2.1 17 11.9 NE 11 20 6 11 1012.3 1010.6 0.0
13/01:30am 24.1 21.9 -1.7 18 11.5 CALM 0 0 0 0 1012.4 1010.7 0.0
13/01:00am 23.6 21.0 -5.4 14 12.1 CALM 0 11 0 6 1012.6 1010.9 0.0
13/12:30am 22.9 19.7 -6.9 13 11.9 SSE 2 9 1 5 1012.8 1011.1 0.0
13/12:00am 26.9 24.3 -1.9 15 13.1 ESE 2 7 1 4 1012.9 1011.2 0.0
 
Date/Time
EST
Temp
°C
App
Temp
°C
Dew
Point
°C
Rel
Hum
%
Delta-T
°C
Wind Press
QNH
hPa
Press
MSL
hPa
Rain since
9am
mm
Dir  Spd
km/h
Gust
km/h
Spd
kts
Gust
kts
12/11:30pm 27.5 24.1 -2.3 14 13.6 ESE 6 11 3 6 1012.9 1011.2 0.0
12/11:00pm 28.0 25.4 -2.0 14 13.8 NW 2 11 1 6 1012.9 1011.2 0.0
12/10:30pm 28.7 25.6 -2.4 13 14.3 SW 4 9 2 5 1012.8 1011.1 0.0

Other formats

Comma delimited format used in spreadsheet applications
http://www.bom.gov.au/fwo/IDQ60801/IDQ60801.94255.axf

JavaScript Object Notation format (JSON) in row-major order
http://www.bom.gov.au/fwo/IDQ60801/IDQ60801.94255.json

Data quality

Most of these data are generated automatically and are frequently updated. Quality checks on data are not normally performed. It is possible for incorrect values to appear. Refer to information at About Latest Weather Observations and please check the disclaimer before using these data.